createdAt,value
2023-04-01T00:00:33.080Z,1.05
2023-04-01T00:05:34.687Z,1.40
2023-04-01T00:10:36.358Z,0.70
2023-04-01T00:15:39.021Z,0.60
2023-04-01T00:20:45.455Z,2.35
2023-04-01T00:25:47.787Z,1.38
2023-04-01T00:30:49.593Z,0.50
2023-04-01T00:35:51.448Z,1.90
2023-04-01T00:40:58.415Z,0.65
2023-04-01T00:46:00.115Z,1.02
2023-04-01T00:51:07.303Z,0.85
2023-04-01T00:56:22.315Z,2.15
2023-04-01T01:01:25.455Z,0.70
2023-04-01T01:06:30.327Z,0.35
2023-04-01T01:11:51.384Z,0.45
2023-04-01T01:16:59.268Z,0.75
2023-04-01T01:22:40.419Z,1.08
2023-04-01T01:27:55.490Z,2.22
2023-04-01T01:33:06.296Z,0.82
2023-04-01T01:38:12.540Z,0.40
2023-04-01T01:43:21.509Z,0.30
2023-04-01T01:48:25.628Z,0.68
2023-04-01T01:53:27.248Z,1.42
2023-04-01T01:58:41.837Z,2.90
2023-04-01T02:03:46.834Z,1.23
2023-04-01T02:08:53.526Z,2.30
2023-04-01T02:19:00.572Z,0.13
2023-04-01T02:24:07.840Z,1.92
2023-04-01T02:29:12.569Z,0.95
2023-04-01T02:34:14.717Z,1.27
2023-04-01T02:39:16.629Z,0.82
2023-04-01T02:44:18.490Z,0.28
2023-04-01T02:49:20.433Z,0.20
2023-04-01T02:54:22.155Z,0.10
2023-04-01T02:59:23.797Z,1.27
2023-04-01T03:04:25.962Z,0.30
2023-04-01T03:09:27.743Z,1.25
2023-04-01T03:14:29.434Z,2.05
2023-04-01T03:19:31.817Z,4.03
2023-04-01T03:24:35.087Z,0.47
2023-04-01T03:29:37.213Z,0.77
2023-04-01T03:34:39.225Z,1.10
2023-04-01T03:39:42.493Z,1.25
2023-04-01T03:44:45.197Z,1.55
2023-04-01T03:49:47.478Z,1.25
2023-04-01T03:54:49.086Z,0.90
2023-04-01T03:59:51.186Z,1.17
2023-04-01T04:04:52.786Z,0.30
2023-04-01T04:09:54.594Z,0.15
2023-04-01T04:14:56.476Z,0.30
2023-04-01T04:19:58.517Z,1.00
2023-04-01T04:25:00.267Z,0.30
2023-04-01T04:30:02.424Z,0.20
2023-04-01T04:35:05.935Z,0.98
2023-04-01T04:40:08.969Z,0.93
2023-04-01T04:45:11.519Z,0.57
2023-04-01T04:50:17.185Z,1.48
2023-04-01T04:55:19.014Z,0.30
2023-04-01T05:00:25.463Z,0.13
2023-04-01T05:05:34.895Z,1.00
2023-04-01T05:10:38.502Z,0.47
2023-04-01T05:15:41.709Z,0.10
2023-04-01T05:20:50.779Z,0.43
2023-04-01T05:25:52.818Z,0.88
2023-04-01T05:30:55.420Z,0.45
2023-04-01T05:36:17.061Z,0.30
2023-04-01T05:41:18.752Z,0.57
2023-04-01T05:46:21.680Z,0.60
2023-04-01T05:51:29.746Z,0.70
2023-04-01T05:56:31.689Z,0.22
2023-04-01T06:01:34.797Z,0.70
2023-04-01T06:06:37.248Z,1.30
2023-04-01T06:11:50.260Z,0.30
2023-04-01T06:16:54.805Z,0.70
2023-04-01T06:22:15.085Z,0.35
2023-04-01T06:27:54.196Z,0.20
2023-04-01T06:33:33.621Z,0.60
2023-04-01T06:39:04.223Z,0.45
2023-04-01T06:44:24.602Z,0.80
2023-04-01T06:50:17.098Z,1.77
2023-04-01T06:56:05.379Z,1.70
2023-04-01T07:01:32.907Z,1.27
2023-04-01T07:06:58.474Z,1.77
2023-04-01T07:12:24.289Z,2.72
2023-04-01T07:17:47.407Z,1.75
2023-04-01T07:22:57.237Z,1.90
2023-04-01T07:28:17.908Z,1.38
2023-04-01T07:33:34.812Z,1.40
2023-04-01T07:39:05.170Z,2.00
2023-04-01T07:45:00.105Z,2.88
2023-04-01T07:50:27.123Z,2.28
2023-04-01T07:56:05.460Z,2.30
2023-04-01T08:02:02.186Z,1.75
2023-04-01T08:07:26.407Z,1.58
2023-04-01T08:12:57.843Z,1.52
2023-04-01T08:18:38.676Z,1.10
2023-04-01T08:23:47.077Z,1.85
2023-04-01T08:29:09.463Z,0.90
2023-04-01T08:34:22.307Z,2.72
2023-04-01T08:39:30.145Z,1.38
2023-04-01T08:44:51.271Z,1.13
2023-04-01T08:49:53.246Z,0.98
2023-04-01T08:55:26.981Z,1.40
2023-04-01T09:01:12.637Z,1.58
2023-04-01T09:06:36.803Z,3.13
2023-04-01T09:12:13.606Z,0.80
2023-04-01T09:17:22.466Z,1.80
2023-04-01T09:22:49.618Z,1.48
2023-04-01T09:28:02.652Z,0.75
2023-04-01T09:33:23.861Z,1.13
2023-04-01T09:38:37.809Z,0.90
2023-04-01T09:44:13.893Z,1.95
2023-04-01T09:50:08.148Z,1.77
2023-04-01T09:55:09.791Z,1.85
2023-04-01T10:00:27.259Z,1.85
2023-04-01T10:06:10.482Z,0.70
2023-04-01T10:11:31.083Z,1.27
2023-04-01T10:16:48.487Z,1.42
2023-04-01T10:22:21.407Z,1.77
2023-04-01T10:27:41.976Z,2.40
2023-04-01T10:33:42.916Z,1.67
2023-04-01T10:39:05.010Z,1.60
2023-04-01T10:44:22.245Z,2.92
2023-04-01T10:49:43.190Z,1.70
2023-04-01T10:55:22.644Z,1.75
2023-04-01T11:01:24.962Z,1.20
2023-04-01T11:07:22.577Z,1.13
2023-04-01T11:12:39.515Z,0.88
2023-04-01T11:18:12.588Z,1.35
2023-04-01T11:23:17.353Z,0.82
2023-04-01T11:28:37.085Z,1.10
2023-04-01T11:33:57.602Z,1.50
2023-04-01T11:39:13.111Z,1.60
2023-04-01T11:44:37.207Z,1.92
2023-04-01T11:49:52.608Z,1.73
2023-04-01T11:55:11.410Z,1.48
2023-04-01T12:00:25.086Z,2.95
2023-04-01T12:05:38.497Z,1.80
2023-04-01T12:10:49.832Z,2.15
2023-04-01T12:16:22.493Z,2.65
2023-04-01T12:21:39.016Z,1.23
2023-04-01T12:26:40.453Z,2.10
2023-04-01T12:32:07.539Z,3.15
2023-04-01T12:37:54.341Z,1.63
2023-04-01T12:43:14.560Z,1.20
2023-04-01T12:48:40.921Z,2.00
2023-04-01T12:54:03.229Z,1.87
2023-04-01T12:59:25.146Z,2.78
2023-04-01T13:04:45.069Z,2.67
2023-04-01T13:10:35.263Z,1.98
2023-04-01T13:15:47.093Z,4.07
2023-04-01T13:21:17.473Z,1.70
2023-04-01T13:26:28.183Z,1.60
2023-04-01T13:31:53.869Z,1.30
2023-04-01T13:37:05.961Z,3.90
2023-04-01T13:42:14.575Z,1.42
2023-04-01T13:47:25.389Z,2.20
2023-04-01T13:52:55.955Z,2.22
2023-04-01T13:58:09.452Z,1.30
2023-04-01T14:03:32.268Z,2.53
2023-04-01T14:08:55.369Z,4.25
2023-04-01T14:14:14.498Z,3.70
2023-04-01T14:19:40.251Z,4.07
2023-04-01T14:24:41.728Z,3.13
2023-04-01T14:29:43.309Z,2.72
2023-04-01T14:35:03.974Z,2.50
2023-04-01T14:40:23.051Z,2.47
2023-04-01T14:45:54.810Z,4.05
2023-04-01T14:51:04.162Z,4.30
2023-04-01T14:56:13.117Z,1.63
2023-04-01T15:01:51.447Z,2.85
2023-04-01T15:07:08.084Z,4.90
2023-04-01T15:12:12.685Z,6.50
2023-04-01T15:17:45.756Z,3.97
2023-04-01T15:23:02.809Z,3.20
2023-04-01T15:33:26.441Z,5.40
2023-04-01T15:39:04.365Z,5.10
2023-04-01T15:44:31.684Z,4.82
2023-04-01T15:54:56.749Z,3.30
2023-04-01T16:00:07.417Z,2.55
2023-04-01T16:05:20.145Z,3.03
2023-04-01T16:10:34.775Z,3.20
2023-04-01T16:16:16.804Z,3.10
2023-04-01T16:21:45.307Z,2.75
2023-04-01T16:27:05.316Z,3.03
2023-04-01T16:32:18.364Z,3.58
2023-04-01T16:37:30.936Z,4.32
2023-04-01T16:42:51.652Z,6.50
2023-04-01T16:47:58.834Z,4.10
2023-04-01T16:53:11.424Z,2.10
2023-04-01T16:58:24.771Z,2.22
2023-04-01T17:03:36.035Z,4.00
2023-04-01T17:09:05.748Z,6.47
2023-04-01T17:14:13.456Z,4.55
2023-04-01T17:19:58.741Z,3.28
2023-04-01T17:25:00.888Z,3.30
2023-04-01T17:30:27.142Z,3.22
2023-04-01T17:35:50.846Z,3.25
2023-04-01T17:40:55.800Z,4.28
2023-04-01T17:46:23.447Z,3.88
2023-04-01T17:51:54.293Z,5.35
2023-04-01T17:57:23.452Z,3.80
2023-04-01T18:02:48.406Z,4.22
2023-04-01T18:08:26.613Z,4.50
2023-04-01T18:13:34.234Z,5.18
2023-04-01T18:18:46.878Z,5.93
2023-04-01T18:24:02.385Z,8.57
2023-04-01T18:29:22.737Z,11.50
2023-04-01T18:34:42.620Z,9.65
2023-04-01T18:39:53.195Z,9.15
2023-04-01T18:45:09.677Z,6.90
2023-04-01T18:50:35.762Z,8.43
2023-04-01T18:55:51.552Z,12.13
2023-04-01T19:00:53.025Z,7.57
2023-04-01T19:05:57.587Z,10.48
2023-04-01T19:11:17.446Z,13.13
2023-04-01T19:16:36.980Z,15.95
2023-04-01T19:21:43.319Z,17.98
2023-04-01T19:27:06.211Z,10.15
2023-04-01T19:32:13.771Z,8.90
2023-04-01T19:37:29.253Z,12.45
2023-04-01T19:42:44.911Z,10.07
2023-04-01T19:47:58.379Z,7.45
2023-04-01T19:53:22.774Z,10.63
2023-04-01T19:58:34.218Z,14.73
2023-04-01T20:03:35.713Z,16.65
2023-04-01T20:09:05.395Z,8.60
2023-04-01T20:14:49.545Z,9.75
2023-04-01T20:20:01.497Z,15.75
2023-04-01T20:25:13.060Z,17.85
2023-04-01T20:30:28.268Z,16.52
2023-04-01T20:35:37.384Z,11.40
2023-04-01T20:40:46.378Z,9.05
2023-04-01T20:45:47.935Z,8.05
2023-04-01T20:50:58.651Z,7.22
2023-04-01T20:56:28.977Z,7.15
2023-04-01T21:01:33.302Z,5.30
2023-04-01T21:07:00.543Z,6.10
2023-04-01T21:17:18.594Z,5.78
2023-04-01T21:22:38.176Z,6.68
2023-04-01T21:27:51.711Z,6.38
2023-04-01T21:33:11.847Z,7.07
2023-04-01T21:38:13.384Z,6.65
2023-04-01T21:43:33.341Z,7.22
2023-04-01T21:48:48.338Z,5.80
2023-04-01T21:54:05.126Z,5.88
2023-04-01T21:59:31.708Z,6.20
2023-04-01T22:04:53.696Z,7.40
2023-04-01T22:10:28.911Z,8.00
2023-04-01T22:15:45.864Z,6.85
2023-04-01T22:26:11.241Z,8.40
2023-04-01T22:31:17.659Z,6.40
2023-04-01T22:36:25.331Z,7.32
2023-04-01T22:41:54.600Z,5.72
2023-04-01T22:47:12.862Z,7.43
2023-04-01T22:52:34.628Z,7.28
2023-04-01T22:57:58.010Z,6.30
2023-04-01T23:03:03.114Z,6.57
2023-04-01T23:08:26.846Z,7.78
2023-04-01T23:14:00.820Z,9.40
2023-04-01T23:19:18.880Z,7.13
2023-04-01T23:25:13.935Z,7.03
2023-04-01T23:30:40.600Z,7.15
2023-04-01T23:35:48.211Z,7.60
2023-04-01T23:40:53.240Z,8.18
2023-04-01T23:46:01.425Z,8.35
2023-04-01T23:51:03.895Z,8.13
2023-04-01T23:56:07.101Z,8.63
